Time;durP1;ratioP1;P1;durP2;ratioP2;P2;SDS_P1;SDS_P2;PMS_P1;PMS_P2;Temp;Humidity;BMP_temperature;BMP_pressure;BME280_temperature;BME280_humidity;BME280_pressure;Samples;Min_cycle;Max_cycle;Signal;HPM_P1;HPM_P2
2022/01/18 00:01:52;;;;;;;8.70;3.00;;;;;-2.10;97546.00;;;;111828;1241;41150;-60
2022/01/18 00:04:23;;;;;;;7.20;3.10;;;;;-2.00;97541.80;;;;111821;1241;41127;-59
2022/01/18 00:06:53;;;;;;;7.70;3.10;;;;;-1.90;97546.40;;;;111726;1242;41125;-59
2022/01/18 00:09:25;;;;;;;9.40;3.40;;;;;-1.92;97550.20;;;;111783;1241;42947;-59
2022/01/18 00:12:12;;;;;;;9.00;3.40;;;;;-1.98;97549.60;;;;111838;1241;41114;-59
2022/01/18 00:14:54;;;;;;;10.90;3.30;;;;;-2.00;97556.60;;;;111624;1243;41181;-58
2022/01/18 00:17:41;;;;;;;8.10;3.20;;;;;-1.90;97557.60;;;;111514;1244;41255;-59
2022/01/18 00:20:17;;;;;;;10.40;3.20;;;;;-1.90;97565.80;;;;111789;1243;41126;-60
2022/01/18 00:22:47;;;;;;;7.90;3.10;;;;;-1.90;97559.80;;;;111512;1243;41153;-58
2022/01/18 00:25:18;;;;;;;8.70;3.00;;;;;-1.90;97573.40;;;;111560;1243;41380;-57
2022/01/18 00:27:47;;;;;;;8.00;2.70;;;;;-1.90;97571.40;;;;111861;1241;42359;-58
2022/01/18 00:35:33;;;;;;;8.20;2.90;;;;;-1.86;97589.60;;;;111833;1241;41241;-61
2022/01/18 00:38:14;;;;;;;9.70;3.40;;;;;-1.80;97588.40;;;;111792;1243;41131;-60
2022/01/18 00:40:44;;;;;;;8.80;3.20;;;;;-1.90;97598.20;;;;111543;1243;41134;-58
2022/01/18 00:43:14;;;;;;;8.80;3.20;;;;;-1.70;97600.20;;;;111846;1243;41597;-58
2022/01/18 00:45:44;;;;;;;8.70;3.10;;;;;-1.80;97617.60;;;;111831;1241;42065;-58
2022/01/18 00:48:14;;;;;;;10.80;3.20;;;;;-1.70;97622.40;;;;111826;1241;41125;-58
2022/01/18 00:50:49;;;;;;;10.30;3.30;;;;;-1.70;97633.40;;;;111551;1243;41159;-58
2022/01/18 00:53:19;;;;;;;8.70;3.10;;;;;-1.70;97648.20;;;;111777;1241;41140;-57
2022/01/18 00:56:00;;;;;;;8.80;3.30;;;;;-1.70;97647.80;;;;111776;1241;41140;-60
2022/01/18 00:58:31;;;;;;;9.50;3.30;;;;;-1.60;97658.80;;;;111492;1243;41168;-60
2022/01/18 01:01:02;;;;;;;12.50;3.70;;;;;-1.60;97674.60;;;;111775;1241;41246;-60
2022/01/18 01:03:32;;;;;;;8.80;3.00;;;;;-1.60;97683.60;;;;111793;1241;41716;-60
2022/01/18 01:06:04;;;;;;;8.20;3.20;;;;;-1.50;97675.20;;;;111762;1243;41255;-60
2022/01/18 01:08:35;;;;;;;8.70;3.40;;;;;-1.50;97679.20;;;;111828;1241;41885;-60
2022/01/18 01:11:08;;;;;;;7.90;3.30;;;;;-1.50;97677.80;;;;111822;1241;41117;-58
2022/01/18 01:13:42;;;;;;;10.50;3.10;;;;;-1.50;97672.40;;;;111462;1244;41149;-58
2022/01/18 01:16:34;;;;;;;9.90;3.00;;;;;-1.50;97683.80;;;;111706;1243;41150;-58
2022/01/18 01:19:24;;;;;;;7.40;3.00;;;;;-1.40;97689.80;;;;111514;1244;41143;-61
2022/01/18 01:36:03;;;;;;;8.40;3.00;;;;;-1.20;97717.60;;;;111548;1242;41345;-60
2022/01/18 01:41:49;;;;;;;8.80;3.00;;;;;-1.30;97729.60;;;;111746;1243;41169;-65
2022/01/18 01:44:24;;;;;;;10.40;3.20;;;;;-1.30;97738.60;;;;111648;1241;42421;-58
2022/01/18 01:46:54;;;;;;;10.60;2.90;;;;;-1.30;97739.20;;;;111711;1243;41897;-58
2022/01/18 01:49:25;;;;;;;7.30;2.60;;;;;-1.30;97737.20;;;;111507;1244;41130;-59
2022/01/18 01:51:55;;;;;;;7.00;2.80;;;;;-1.30;97741.60;;;;111457;1244;42380;-58
2022/01/18 01:54:25;;;;;;;9.10;3.10;;;;;-1.40;97756.80;;;;111530;1243;41146;-58
2022/01/18 01:56:56;;;;;;;7.10;2.60;;;;;-1.40;97767.60;;;;111688;1243;42350;-58
2022/01/18 01:59:27;;;;;;;7.90;3.10;;;;;-1.46;97766.40;;;;111774;1243;41162;-60
2022/01/18 02:02:03;;;;;;;7.20;2.60;;;;;-1.50;97776.00;;;;111711;1242;42237;-57
2022/01/18 02:04:33;;;;;;;;;;;;;-1.50;97773.80;;;;111806;1243;40867;-60
2022/01/18 02:07:04;;;;;;;9.30;3.30;;;;;-1.50;97776.80;;;;111559;1243;41137;-58
2022/01/18 02:09:35;;;;;;;7.50;3.00;;;;;-1.50;97773.60;;;;111851;1241;42352;-60
2022/01/18 02:12:06;;;;;;;8.60;2.70;;;;;-1.48;97784.00;;;;111813;1243;41185;-58
2022/01/18 02:14:39;;;;;;;7.80;2.90;;;;;-1.50;97790.60;;;;111815;1243;41137;-58
2022/01/18 02:22:55;;;;;;;7.70;3.10;;;;;-1.50;97797.40;;;;111538;1243;41257;-58
2022/01/18 02:25:25;;;;;;;9.40;2.70;;;;;-1.50;97804.00;;;;111673;1244;42199;-58
2022/01/18 02:27:56;;;;;;;9.00;2.80;;;;;-1.50;97810.00;;;;111817;1243;41165;-59
2022/01/18 02:30:26;;;;;;;6.40;2.90;;;;;-1.50;97806.20;;;;111716;1243;41933;-60
2022/01/18 02:32:57;;;;;;;7.30;2.60;;;;;-1.50;97824.00;;;;111766;1243;42175;-58
2022/01/18 02:35:31;;;;;;;7.90;2.50;;;;;-1.50;97826.00;;;;111671;1244;41152;-57
2022/01/18 02:38:02;;;;;;;9.30;2.80;;;;;-1.50;97832.40;;;;111799;1243;42131;-58
2022/01/18 02:40:33;;;;;;;7.30;2.70;;;;;-1.40;97834.40;;;;111613;1242;41148;-58
2022/01/18 02:45:56;;;;;;;7.60;2.60;;;;;-1.20;97847.40;;;;111670;1241;41210;-61
2022/01/18 02:48:26;;;;;;;8.20;2.60;;;;;-1.20;97846.20;;;;111452;1243;41155;-60
2022/01/18 02:50:56;;;;;;;9.00;3.20;;;;;-1.10;97859.80;;;;111692;1243;41189;-58
2022/01/18 02:53:27;;;;;;;7.60;2.80;;;;;-1.00;97855.80;;;;111793;1244;41255;-60
2022/01/18 02:55:59;;;;;;;7.20;2.80;;;;;-1.00;97854.00;;;;111783;1243;41930;-59
2022/01/18 02:58:33;;;;;;;7.80;2.60;;;;;-1.00;97848.00;;;;111772;1243;41146;-59
2022/01/18 03:03:37;;;;;;;9.50;2.80;;;;;-1.00;97866.00;;;;111787;1241;41825;-59
2022/01/18 03:06:07;;;;;;;9.60;2.60;;;;;-0.96;97874.80;;;;111577;1243;41130;-59
2022/01/18 03:08:37;;;;;;;;;;;;;-0.92;97880.00;;;;111788;1242;41168;-58
2022/01/18 03:11:08;;;;;;;6.10;2.40;;;;;-1.00;97888.40;;;;111758;1243;41130;-58
2022/01/18 03:13:38;;;;;;;10.60;2.80;;;;;-0.98;97891.20;;;;111802;1243;41816;-58
2022/01/18 03:16:08;;;;;;;8.10;2.60;;;;;-0.90;97891.20;;;;111769;1244;41167;-58
2022/01/18 03:18:38;;;;;;;8.60;2.80;;;;;-0.90;97902.40;;;;111451;1243;41980;-58
2022/01/18 03:21:10;;;;;;;8.20;2.50;;;;;-1.00;97895.00;;;;111658;1244;41150;-59
2022/01/18 03:23:40;;;;;;;7.20;2.80;;;;;-1.00;97900.00;;;;111411;1244;41251;-58
2022/01/18 03:26:15;;;;;;;8.50;3.00;;;;;-0.96;97903.00;;;;111410;1243;41186;-58
2022/01/18 03:28:45;;;;;;;9.30;3.00;;;;;-1.00;97911.00;;;;111824;1243;41135;-58
2022/01/18 03:31:16;;;;;;;7.20;2.60;;;;;-1.00;97907.20;;;;111455;1243;41170;-58
2022/01/18 03:33:46;;;;;;;10.30;2.70;;;;;-1.00;97908.60;;;;111633;1241;41175;-58
2022/01/18 03:36:16;;;;;;;6.60;2.40;;;;;-1.02;97904.60;;;;111724;1243;41149;-58
2022/01/18 03:38:46;;;;;;;5.50;2.40;;;;;-1.08;97912.20;;;;111393;1244;41147;-59
2022/01/18 03:41:18;;;;;;;10.10;2.60;;;;;-1.06;97913.60;;;;111602;1244;41242;-60
2022/01/18 03:43:47;;;;;;;10.40;2.60;;;;;-1.10;97920.00;;;;111512;1243;41147;-58
2022/01/18 03:46:17;;;;;;;9.10;2.50;;;;;-1.12;97924.40;;;;111756;1242;42095;-58
2022/01/18 03:48:50;;;;;;;6.30;2.30;;;;;-1.10;97924.80;;;;111750;1242;41163;-60
2022/01/18 03:51:20;;;;;;;10.20;2.80;;;;;-1.10;97919.00;;;;111786;1243;41450;-58
2022/01/18 03:53:51;;;;;;;6.20;2.80;;;;;-1.22;97927.60;;;;111573;1244;41139;-61
2022/01/18 03:56:21;;;;;;;10.20;2.80;;;;;-1.30;97927.40;;;;111490;1244;41820;-58
2022/01/18 03:58:51;;;;;;;8.70;2.70;;;;;-1.30;97940.20;;;;111755;1243;41896;-59
2022/01/18 04:01:21;;;;;;;5.70;2.40;;;;;-1.30;97936.80;;;;111568;1243;41136;-58
2022/01/18 04:03:54;;;;;;;9.30;2.70;;;;;-1.30;97937.20;;;;111697;1244;41179;-58
2022/01/18 04:06:24;;;;;;;7.60;2.80;;;;;-1.36;97942.20;;;;111741;1242;41153;-58
2022/01/18 04:08:54;;;;;;;12.60;2.80;;;;;-1.40;97943.20;;;;111727;1243;41668;-58
2022/01/18 04:11:24;;;;;;;6.90;2.60;;;;;-1.50;97950.60;;;;111815;1243;41170;-58
2022/01/18 04:13:54;;;;;;;7.90;2.50;;;;;-1.50;97949.00;;;;111773;1243;41598;-58
2022/01/18 04:16:24;;;;;;;6.90;2.70;;;;;-1.50;97953.60;;;;111725;1242;41706;-60
2022/01/18 04:19:09;;;;;;;8.30;2.70;;;;;-1.52;97959.40;;;;111801;1241;41709;-58
2022/01/18 04:27:23;;;;;;;9.50;2.80;;;;;-1.70;97970.00;;;;111504;1244;41146;-58
2022/01/18 04:29:53;;;;;;;7.80;2.60;;;;;-1.70;97963.00;;;;111823;1242;41160;-58
2022/01/18 04:32:22;;;;;;;7.50;2.60;;;;;-1.70;97977.60;;;;111883;1241;41322;-57
2022/01/18 04:34:52;;;;;;;9.90;2.80;;;;;-1.80;97983.80;;;;111607;1241;41248;-58
2022/01/18 04:37:21;;;;;;;9.20;2.60;;;;;-1.80;97985.00;;;;111883;1241;41146;-57
2022/01/18 04:39:51;;;;;;;9.30;3.50;;;;;-1.90;97996.80;;;;111874;1241;41824;-58
2022/01/18 04:42:42;;;;;;;9.00;2.80;;;;;-1.90;97997.00;;;;111471;1243;42445;-58
2022/01/18 04:50:50;;;;;;;5.50;2.20;;;;;-1.92;97992.40;;;;111412;1243;41138;-60
2022/01/18 04:53:20;;;;;;;6.70;2.50;;;;;-1.92;97997.40;;;;111442;1244;41263;-60
2022/01/18 04:55:54;;;;;;;12.00;3.20;;;;;-1.94;98001.20;;;;111430;1243;41849;-59
2022/01/18 04:58:25;;;;;;;7.00;2.60;;;;;-2.04;98006.40;;;;111307;1243;41198;-59
2022/01/18 05:00:58;;;;;;;7.20;2.80;;;;;-2.10;98014.00;;;;111422;1244;41424;-59
2022/01/18 05:03:29;;;;;;;8.30;2.90;;;;;-2.10;98011.80;;;;111488;1244;41229;-59
2022/01/18 05:06:03;;;;;;;10.00;3.00;;;;;-2.10;98008.20;;;;111499;1243;41142;-59
2022/01/18 05:08:32;;;;;;;8.20;2.80;;;;;-2.20;98024.00;;;;111505;1244;41524;-57
2022/01/18 05:11:02;;;;;;;9.40;3.10;;;;;-2.10;98014.00;;;;111525;1243;41248;-58
2022/01/18 05:23:43;;;;;;;9.20;3.10;;;;;-2.20;98034.00;;;;111572;1243;41320;-58
2022/01/18 05:26:12;;;;;;;7.00;2.60;;;;;-2.20;98028.80;;;;111598;1244;41414;-60
2022/01/18 05:28:42;;;;;;;8.90;3.30;;;;;-2.24;98035.20;;;;111419;1243;42346;-59
2022/01/18 05:31:12;;;;;;;9.20;3.10;;;;;-2.20;98033.60;;;;111561;1243;41179;-58
2022/01/18 05:33:47;;;;;;;7.10;2.70;;;;;-2.26;98035.60;;;;111771;1244;41262;-60
2022/01/18 05:36:22;;;;;;;7.60;3.00;;;;;-2.34;98045.20;;;;111383;1243;41248;-58
2022/01/18 05:38:52;;;;;;;10.10;3.20;;;;;-2.26;98043.20;;;;111583;1243;41150;-58
2022/01/18 05:41:21;;;;;;;7.70;2.80;;;;;-2.20;98052.80;;;;111584;1244;42024;-61
2022/01/18 05:43:52;;;;;;;9.80;2.90;;;;;-2.20;98056.00;;;;111541;1244;41252;-60
2022/01/18 05:46:22;;;;;;;10.80;3.30;;;;;-2.28;98062.20;;;;111781;1243;41135;-60
2022/01/18 05:48:51;;;;;;;8.50;2.90;;;;;-2.30;98060.60;;;;111822;1241;41120;-58
2022/01/18 05:51:21;;;;;;;10.10;3.40;;;;;-2.30;98062.40;;;;111782;1242;41788;-58
2022/01/18 05:53:50;;;;;;;8.10;3.00;;;;;-2.38;98064.40;;;;111770;1243;41797;-58
2022/01/18 05:56:20;;;;;;;8.10;3.10;;;;;-2.30;98068.00;;;;111567;1244;41146;-57
2022/01/18 05:58:50;;;;;;;9.00;3.10;;;;;-2.30;98063.40;;;;111817;1241;41155;-58
2022/01/18 06:01:26;;;;;;;11.80;3.30;;;;;-2.30;98069.00;;;;111757;1244;41136;-59
2022/01/18 06:09:15;;;;;;;8.30;3.00;;;;;-2.30;98071.40;;;;111808;1243;41889;-58
2022/01/18 06:11:44;;;;;;;9.40;2.90;;;;;-2.30;98078.40;;;;111495;1243;41597;-58
2022/01/18 06:14:14;;;;;;;9.70;3.30;;;;;-2.30;98082.00;;;;111795;1241;41155;-57
2022/01/18 06:16:43;;;;;;;9.40;3.10;;;;;-2.30;98083.20;;;;111819;1244;41127;-59
2022/01/18 06:19:13;;;;;;;8.00;2.90;;;;;-2.30;98076.00;;;;111476;1244;41783;-59
2022/01/18 06:21:42;;;;;;;10.40;3.70;;;;;-2.26;98076.20;;;;111465;1244;41248;-59
2022/01/18 06:24:11;;;;;;;11.20;3.30;;;;;-2.30;98082.20;;;;111578;1244;41147;-60
2022/01/18 06:27:01;;;;;;;8.70;2.90;;;;;-2.30;98085.60;;;;111842;1243;41194;-59
2022/01/18 06:29:30;;;;;;;8.50;2.90;;;;;-2.20;98079.20;;;;111793;1244;41117;-61
2022/01/18 06:32:00;;;;;;;7.90;2.80;;;;;-2.20;98092.40;;;;111706;1242;42307;-59
2022/01/18 06:34:29;;;;;;;12.80;3.50;;;;;-2.20;98099.00;;;;111841;1244;41891;-57
2022/01/18 06:36:59;;;;;;;9.30;3.10;;;;;-2.20;98110.20;;;;111820;1243;41170;-58
2022/01/18 06:39:28;;;;;;;11.40;3.80;;;;;-2.24;98124.00;;;;111821;1244;41606;-60
2022/01/18 06:41:57;;;;;;;9.90;3.40;;;;;-2.30;98129.80;;;;111849;1242;41147;-58
2022/01/18 06:44:27;;;;;;;7.90;3.00;;;;;-2.20;98131.60;;;;111839;1244;42031;-60
2022/01/18 06:46:57;;;;;;;11.30;3.50;;;;;-2.20;98128.80;;;;111780;1241;41259;-61
2022/01/18 06:49:26;;;;;;;12.70;3.40;;;;;-2.18;98136.60;;;;111566;1244;41256;-58
2022/01/18 06:51:55;;;;;;;11.80;3.80;;;;;-2.10;98141.80;;;;111712;1241;41838;-60
2022/01/18 06:54:24;;;;;;;14.20;3.30;;;;;-2.00;98140.40;;;;111516;1243;41149;-59
2022/01/18 06:56:53;;;;;;;10.50;3.10;;;;;-1.90;98149.80;;;;111682;1242;41273;-58
2022/01/18 06:59:22;;;;;;;9.90;3.60;;;;;-1.80;98144.60;;;;111460;1243;42806;-60
2022/01/18 07:01:51;;;;;;;12.40;3.40;;;;;-1.70;98141.60;;;;111769;1243;41128;-60
2022/01/18 07:04:21;;;;;;;10.60;3.40;;;;;-1.68;98140.00;;;;111725;1241;42726;-60
2022/01/18 07:06:50;;;;;;;10.50;3.20;;;;;-1.50;98141.80;;;;111811;1241;41830;-60
2022/01/18 07:09:23;;;;;;;11.50;3.30;;;;;-1.40;98139.00;;;;111901;1241;41130;-60
2022/01/18 07:11:56;;;;;;;8.00;2.90;;;;;-1.30;98146.60;;;;111884;1241;41145;-60
2022/01/18 07:14:25;;;;;;;8.70;3.00;;;;;-1.20;98147.80;;;;111818;1242;41594;-61
2022/01/18 07:16:55;;;;;;;12.50;4.50;;;;;-1.12;98146.00;;;;111771;1244;41274;-60
2022/01/18 07:19:24;;;;;;;12.00;3.50;;;;;-1.00;98149.00;;;;111810;1242;41251;-59
2022/01/18 07:21:53;;;;;;;12.50;3.70;;;;;-0.86;98153.80;;;;111878;1243;41285;-60
2022/01/18 07:27:13;;;;;;;8.50;3.10;;;;;-0.50;98155.00;;;;111630;1244;41512;-59
2022/01/18 07:29:42;;;;;;;;;;;;;-0.28;98158.40;;;;111834;1244;41630;-58
2022/01/18 07:32:12;;;;;;;9.70;2.90;;;;;-0.30;98164.40;;;;111555;1244;41599;-60
2022/01/18 07:34:49;;;;;;;11.70;3.20;;;;;-0.12;98158.00;;;;111741;1244;41242;-59
2022/01/18 07:37:22;;;;;;;7.00;2.70;;;;;-0.04;98159.20;;;;111784;1244;41648;-59
2022/01/18 07:39:53;;;;;;;9.90;3.00;;;;;0.02;98160.00;;;;111625;1244;42342;-59
2022/01/18 07:42:23;;;;;;;8.40;2.90;;;;;0.10;98162.00;;;;111499;1245;41261;-59
2022/01/18 07:44:53;;;;;;;9.90;3.10;;;;;0.10;98163.20;;;;111821;1242;41129;-61
2022/01/18 07:47:23;;;;;;;11.50;3.30;;;;;0.34;98167.60;;;;111831;1242;41114;-60
2022/01/18 07:49:51;;;;;;;11.30;3.50;;;;;0.72;98168.40;;;;111714;1241;41235;-60
2022/01/18 07:52:20;;;;;;;6.40;2.40;;;;;0.68;98165.80;;;;111605;1243;41126;-61
2022/01/18 07:54:50;;;;;;;11.00;2.80;;;;;0.88;98176.80;;;;111640;1244;41139;-63
2022/01/18 07:57:20;;;;;;;9.30;2.90;;;;;0.46;98179.20;;;;111389;1244;41279;-63
2022/01/18 07:59:49;;;;;;;8.40;2.80;;;;;0.74;98180.40;;;;111638;1244;42174;-61
2022/01/18 08:02:19;;;;;;;8.00;2.80;;;;;0.80;98180.20;;;;111532;1244;41133;-59
2022/01/18 08:04:48;;;;;;;9.10;3.00;;;;;0.70;98185.20;;;;111415;1244;41717;-62
2022/01/18 08:07:17;;;;;;;8.50;2.60;;;;;0.90;98186.80;;;;111752;1241;41964;-59
2022/01/18 08:09:46;;;;;;;12.50;3.60;;;;;0.88;98191.60;;;;111840;1244;41178;-60
2022/01/18 08:12:17;;;;;;;10.10;3.70;;;;;0.82;98196.00;;;;111568;1243;41445;-60
2022/01/18 08:14:46;;;;;;;11.10;3.60;;;;;0.90;98203.60;;;;111492;1244;41303;-60
2022/01/18 08:17:16;;;;;;;7.90;3.30;;;;;0.90;98203.60;;;;111691;1244;41251;-60
2022/01/18 08:19:45;;;;;;;7.40;2.40;;;;;0.90;98205.00;;;;111694;1244;42100;-59
2022/01/18 08:22:15;;;;;;;10.70;2.80;;;;;0.40;98208.80;;;;111748;1243;41238;-61
2022/01/18 08:24:44;;;;;;;8.00;2.90;;;;;0.38;98219.60;;;;111562;1244;41858;-59
2022/01/18 08:27:14;;;;;;;10.80;3.00;;;;;0.62;98222.00;;;;111457;1244;41148;-59
2022/01/18 08:29:45;;;;;;;8.50;3.10;;;;;0.22;98226.80;;;;111487;1244;41149;-59
2022/01/18 08:32:17;;;;;;;9.70;3.10;;;;;0.40;98229.80;;;;111499;1244;41136;-59
2022/01/18 08:34:46;;;;;;;9.60;3.10;;;;;0.40;98240.20;;;;111738;1243;41615;-62
2022/01/18 08:37:15;;;;;;;10.40;3.20;;;;;0.10;98227.60;;;;111744;1242;41575;-62
2022/01/18 08:39:44;;;;;;;11.90;2.80;;;;;0.26;98230.40;;;;111727;1242;41368;-60
2022/01/18 08:42:14;;;;;;;15.20;3.50;;;;;-0.02;98227.80;;;;111698;1244;41927;-60
2022/01/18 08:44:43;;;;;;;10.90;3.20;;;;;-0.10;98241.80;;;;111721;1244;41718;-60
2022/01/18 08:47:14;;;;;;;9.10;2.80;;;;;-0.06;98240.60;;;;111776;1244;41618;-60
2022/01/18 08:49:44;;;;;;;8.30;2.90;;;;;0.00;98244.20;;;;111754;1241;41133;-59
2022/01/18 08:52:14;;;;;;;8.80;2.60;;;;;-0.16;98244.20;;;;111695;1244;41251;-60
2022/01/18 08:54:43;;;;;;;11.00;3.10;;;;;-0.12;98247.00;;;;111591;1242;41115;-60
2022/01/18 08:57:14;;;;;;;8.60;3.20;;;;;0.06;98248.00;;;;111369;1245;41252;-60
2022/01/18 08:59:44;;;;;;;12.00;3.40;;;;;-0.14;98253.40;;;;111654;1243;41152;-59
2022/01/18 09:02:13;;;;;;;9.30;3.10;;;;;-0.04;98250.60;;;;111247;1245;241720;-60
2022/01/18 09:04:43;;;;;;;10.50;3.10;;;;;-0.12;98243.80;;;;111586;1243;42344;-58
2022/01/18 09:07:12;;;;;;;8.50;3.20;;;;;0.12;98241.20;;;;111747;1242;41631;-60
2022/01/18 09:09:45;;;;;;;10.20;3.30;;;;;0.20;98235.60;;;;111777;1241;41251;-60
2022/01/18 09:12:17;;;;;;;8.50;2.80;;;;;0.24;98243.40;;;;111656;1240;41251;-60
2022/01/18 09:14:46;;;;;;;9.70;3.30;;;;;0.02;98242.00;;;;111670;1243;41136;-62
2022/01/18 09:17:16;;;;;;;8.00;2.90;;;;;0.12;98240.00;;;;111688;1242;41715;-61
2022/01/18 09:19:45;;;;;;;11.50;3.30;;;;;0.34;98251.60;;;;111765;1243;41758;-61
2022/01/18 09:22:14;;;;;;;9.70;2.70;;;;;0.58;98254.00;;;;111692;1244;41148;-62
2022/01/18 09:24:43;;;;;;;9.60;3.00;;;;;0.86;98255.00;;;;111838;1242;41329;-60
2022/01/18 09:27:12;;;;;;;8.50;2.80;;;;;1.04;98247.40;;;;111866;1242;41621;-59
2022/01/18 09:29:42;;;;;;;10.50;3.40;;;;;1.50;98243.40;;;;111840;1241;41124;-62
2022/01/18 09:32:11;;;;;;;8.90;2.90;;;;;1.82;98251.20;;;;111722;1244;42397;-60
2022/01/18 09:34:41;;;;;;;10.50;3.20;;;;;2.10;98242.20;;;;111534;1243;41724;-61
2022/01/18 09:37:10;;;;;;;8.80;3.30;;;;;2.36;98243.80;;;;111578;1244;41153;-60
2022/01/18 09:39:39;;;;;;;8.90;3.10;;;;;1.58;98242.00;;;;111844;1242;41235;-59
2022/01/18 09:42:10;;;;;;;8.70;3.30;;;;;2.46;98240.80;;;;111872;1243;41267;-60
2022/01/18 09:44:40;;;;;;;11.20;3.40;;;;;2.84;98231.40;;;;111839;1241;41286;-59
2022/01/18 09:47:09;;;;;;;7.30;2.70;;;;;3.12;98212.20;;;;111867;1244;42352;-60
2022/01/18 09:49:39;;;;;;;9.90;2.80;;;;;3.64;98199.60;;;;111836;1243;41195;-60
2022/01/18 09:52:08;;;;;;;8.10;2.90;;;;;4.74;98178.80;;;;111878;1241;41137;-60
2022/01/18 09:54:38;;;;;;;10.30;3.20;;;;;6.74;98171.60;;;;111580;1244;41146;-59
2022/01/18 09:57:07;;;;;;;11.10;2.90;;;;;7.00;98148.20;;;;111838;1244;42365;-59
2022/01/18 09:59:36;;;;;;;6.40;2.20;;;;;9.24;98160.80;;;;111781;1241;41370;-60
2022/01/18 10:02:09;;;;;;;8.90;2.80;;;;;6.28;98162.20;;;;111824;1241;41134;-61
2022/01/18 10:04:42;;;;;;;8.50;3.10;;;;;10.16;98163.20;;;;111798;1244;41720;-60
2022/01/18 10:07:11;;;;;;;8.90;3.00;;;;;11.00;98158.20;;;;111793;1244;41171;-60
2022/01/18 10:09:40;;;;;;;10.00;3.30;;;;;8.88;98131.20;;;;111913;1241;42362;-60
2022/01/18 10:12:11;;;;;;;9.80;3.00;;;;;9.84;98163.20;;;;111780;1241;41120;-60
2022/01/18 10:15:00;;;;;;;9.70;3.10;;;;;9.36;98167.40;;;;111857;1241;41932;-60
2022/01/18 10:17:35;;;;;;;9.20;3.00;;;;;8.30;98189.80;;;;111834;1244;41731;-60
2022/01/18 10:20:14;;;;;;;8.90;3.00;;;;;5.82;98197.00;;;;111717;1242;41149;-60
2022/01/18 10:22:48;;;;;;;9.50;2.90;;;;;5.52;98202.80;;;;111732;1244;41833;-59
2022/01/18 10:25:20;;;;;;;7.60;2.80;;;;;5.90;98190.40;;;;111835;1243;41138;-59
2022/01/18 10:27:52;;;;;;;8.20;2.80;;;;;7.02;98186.00;;;;111771;1241;41256;-60
2022/01/18 10:30:34;;;;;;;12.10;3.30;;;;;7.88;98174.60;;;;111853;1244;41823;-59
2022/01/18 10:33:12;;;;;;;8.40;2.90;;;;;8.48;98199.20;;;;111854;1244;41143;-59
2022/01/18 10:36:02;;;;;;;10.60;3.40;;;;;8.16;98197.00;;;;111816;1244;41522;-60
2022/01/18 10:38:32;;;;;;;9.00;3.10;;;;;6.56;98186.00;;;;111818;1241;41249;-59
2022/01/18 10:41:28;;;;;;;9.00;3.40;;;;;6.58;98197.00;;;;111875;1241;41143;-59
2022/01/18 10:44:04;;;;;;;8.80;2.90;;;;;4.94;98205.00;;;;111785;1243;41620;-59
2022/01/18 10:46:37;;;;;;;9.20;3.30;;;;;4.80;98205.00;;;;111835;1241;41144;-60
2022/01/18 10:49:07;;;;;;;10.90;2.80;;;;;5.50;98201.40;;;;111824;1244;41131;-60
2022/01/18 10:51:42;;;;;;;10.40;3.50;;;;;6.02;98206.60;;;;111816;1243;41147;-59
2022/01/18 10:54:11;;;;;;;11.70;4.00;;;;;6.18;98202.40;;;;111812;1243;41829;-60
2022/01/18 10:56:45;;;;;;;11.20;3.50;;;;;5.60;98215.80;;;;111772;1243;41156;-61
2022/01/18 10:59:24;;;;;;;13.80;3.80;;;;;3.90;98223.80;;;;111785;1241;42979;-60
2022/01/18 11:02:15;;;;;;;17.40;4.60;;;;;4.20;98220.00;;;;111509;1244;42467;-62
2022/01/18 11:04:52;;;;;;;11.80;3.60;;;;;4.30;98224.80;;;;111843;1241;41671;-61
2022/01/18 11:07:30;;;;;;;12.60;3.80;;;;;4.46;98228.00;;;;111802;1241;41247;-62
2022/01/18 11:10:05;;;;;;;8.60;3.20;;;;;4.00;98231.00;;;;111505;1241;41147;-64
2022/01/18 11:12:46;;;;;;;8.20;3.10;;;;;3.72;98241.60;;;;111771;1244;41137;-61
2022/01/18 11:15:19;;;;;;;9.80;3.00;;;;;3.84;98248.40;;;;111794;1241;41145;-60
2022/01/18 11:17:58;;;;;;;9.00;2.90;;;;;3.16;98241.00;;;;111509;1244;41267;-61
2022/01/18 11:20:35;;;;;;;10.20;3.00;;;;;3.72;98230.60;;;;111745;1242;41553;-60
2022/01/18 11:23:12;;;;;;;9.30;2.80;;;;;3.64;98246.00;;;;111313;1244;41136;-62
2022/01/18 11:25:46;;;;;;;4.80;2.10;;;;;3.24;98239.40;;;;111792;1244;41133;-60
2022/01/18 11:28:17;;;;;;;9.70;2.90;;;;;2.58;98246.40;;;;111716;1244;41171;-60
2022/01/18 11:30:52;;;;;;;11.20;3.70;;;;;3.14;98247.20;;;;111509;1244;42384;-62
2022/01/18 11:33:24;;;;;;;9.50;3.50;;;;;3.40;98234.60;;;;111509;1244;41600;-61
2022/01/18 11:35:56;;;;;;;;;;;;;5.10;98220.40;;;;111519;1244;41153;-62
2022/01/18 11:38:35;;;;;;;12.90;4.30;;;;;6.80;98215.00;;;;111754;1243;41596;-61
2022/01/18 11:41:26;;;;;;;9.10;3.10;;;;;7.42;98221.00;;;;111490;1241;41920;-61
2022/01/18 11:43:59;;;;;;;9.50;2.60;;;;;8.08;98186.00;;;;111537;1244;41129;-59
2022/01/18 11:46:31;;;;;;;9.70;3.40;;;;;10.40;98213.20;;;;111743;1241;41138;-61
2022/01/18 11:49:04;;;;;;;8.00;2.90;;;;;10.90;98178.60;;;;111739;1241;41246;-61
2022/01/18 11:51:43;;;;;;;10.00;3.00;;;;;12.38;98203.00;;;;111705;1243;41469;-60
2022/01/18 11:54:32;;;;;;;7.90;2.70;;;;;9.68;98222.00;;;;111652;1241;41866;-62
2022/01/18 11:57:23;;;;;;;10.90;3.40;;;;;9.60;98212.00;;;;111460;1244;41181;-61
2022/01/18 11:59:58;;;;;;;7.60;2.60;;;;;9.16;98233.00;;;;111411;1244;41656;-61
2022/01/18 12:02:46;;;;;;;7.90;2.40;;;;;9.52;98230.00;;;;111599;1244;41828;-62
2022/01/18 12:05:21;;;;;;;6.80;2.50;;;;;10.12;98194.60;;;;111498;1242;41253;-60
2022/01/18 12:07:58;;;;;;;8.40;2.70;;;;;11.72;98219.20;;;;111740;1244;41131;-60
2022/01/18 12:10:32;;;;;;;9.00;2.70;;;;;11.90;98189.80;;;;111710;1243;41735;-61
2022/01/18 12:13:11;;;;;;;7.60;2.40;;;;;13.70;98209.60;;;;111460;1244;41134;-60
2022/01/18 12:15:46;;;;;;;7.50;2.30;;;;;14.60;98203.80;;;;111267;1244;41166;-62
2022/01/18 12:18:18;;;;;;;9.20;2.60;;;;;16.12;98181.80;;;;111468;1244;41870;-58
2022/01/18 12:20:54;;;;;;;7.30;2.40;;;;;15.26;98222.00;;;;111788;1243;41146;-58
2022/01/18 12:23:40;;;;;;;6.00;2.40;;;;;15.60;98196.20;;;;111555;1244;41586;-60
2022/01/18 12:26:33;;;;;;;8.10;2.30;;;;;16.88;98191.20;;;;111525;1243;41607;-61
2022/01/18 12:29:24;;;;;;;8.10;2.50;;;;;18.84;98199.80;;;;111435;1244;41152;-61
2022/01/18 12:34:45;;;;;;;9.50;2.40;;;;;22.44;98172.60;;;;111259;1244;42930;-61
2022/01/18 12:45:13;;;;;;;6.40;2.10;;;;;19.58;98228.40;;;;111385;1244;41260;-61
2022/01/18 12:47:48;;;;;;;6.10;2.50;;;;;17.54;98232.80;;;;111550;1244;41145;-61
2022/01/18 12:50:22;;;;;;;7.50;2.30;;;;;16.48;98199.40;;;;111548;1244;41142;-60
2022/01/18 12:53:02;;;;;;;8.80;2.40;;;;;16.64;98212.20;;;;111734;1243;41255;-61
2022/01/18 12:55:48;;;;;;;9.00;2.80;;;;;12.74;98240.00;;;;111521;1242;41266;-63
2022/01/18 12:58:26;;;;;;;7.50;2.30;;;;;9.94;98250.80;;;;111553;1244;41656;-59
2022/01/18 13:01:02;;;;;;;8.30;2.80;;;;;11.46;98257.00;;;;111516;1244;42519;-60
2022/01/18 13:03:47;;;;;;;7.20;2.40;;;;;9.10;98274.40;;;;111712;1244;41127;-59
2022/01/18 13:06:24;;;;;;;12.60;3.00;;;;;9.00;98269.00;;;;111808;1241;41259;-61
2022/01/18 13:08:57;;;;;;;8.30;2.90;;;;;8.80;98271.20;;;;111525;1243;41347;-60
2022/01/18 13:11:29;;;;;;;8.90;2.70;;;;;7.84;98277.60;;;;111817;1241;41597;-62
2022/01/18 13:14:10;;;;;;;11.00;3.30;;;;;7.90;98284.60;;;;111804;1243;41146;-61
2022/01/18 13:25:12;;;;;;;9.10;2.90;;;;;13.38;98242.40;;;;111266;1244;41156;-63
2022/01/18 13:27:47;;;;;;;8.30;2.80;;;;;15.50;98238.00;;;;111314;1242;41644;-60
2022/01/18 13:30:23;;;;;;;9.80;3.00;;;;;12.30;98272.20;;;;111176;1244;41656;-63
2022/01/18 13:32:56;;;;;;;7.90;2.50;;;;;10.54;98279.20;;;;111630;1243;41255;-61
2022/01/18 13:35:30;;;;;;;8.60;2.70;;;;;9.76;98286.00;;;;111477;1243;41172;-59
2022/01/18 13:38:03;;;;;;;8.70;2.90;;;;;10.30;98274.80;;;;111735;1242;41694;-62
2022/01/18 13:40:36;;;;;;;8.40;2.80;;;;;8.88;98305.00;;;;111509;1242;41260;-62
2022/01/18 13:43:12;;;;;;;9.40;2.80;;;;;8.00;98315.20;;;;111280;1242;41151;-60
2022/01/18 13:45:43;;;;;;;8.90;2.60;;;;;7.74;98311.80;;;;111529;1241;41422;-58
2022/01/18 13:48:14;;;;;;;9.70;2.90;;;;;5.70;98329.00;;;;111526;1242;41419;-62
2022/01/18 13:50:48;;;;;;;;;;;;;4.42;98335.40;;;;111492;1242;41255;-61
2022/01/18 13:53:30;;;;;;;7.30;2.50;;;;;4.32;98354.80;;;;111691;1241;42288;-63
2022/01/18 13:56:10;;;;;;;10.40;3.10;;;;;4.64;98354.00;;;;111589;1243;41486;-62
2022/01/18 13:58:42;;;;;;;8.40;2.80;;;;;4.30;98368.00;;;;111416;1244;41146;-63
2022/01/18 14:01:17;;;;;;;7.50;2.90;;;;;4.24;98369.00;;;;111480;1244;41258;-61